首页
METAR-TAF:

METAR-TAF

机场 :

普羅維登西亞萊斯國際機場

Providenciales, 特克斯和凯科斯群岛

纬度: 21-46-25N, 经度: 072-15-57W, 海拔: 5米

当前天气观测

该预报发布于10分钟前的18:00 UTC
风速5节,风向东南
温度 29°C
湿度 70%
气压 1017 hPa
能见度10公里或以上
少量云层高于1200英尺

METAR: MBPV 101800Z 13005KT 9999 FEW012 29/23 Q1017

时间: 14:10 (18:10 UTC)

预报

该预报发布于1小时和40分钟前的16:30 UTC
预报有效从10日的 18点(UTC)到 11日的 18点(UTC)
风速6节,风向南转南东
能见度10公里或以上
散云层高于2500英尺

TAF: MBPV 101630Z 1018/1118 16006KT 9999 SCT025

超过4000个机场的气象观测和天气预报(METAR&TAF报告)。

可查询的气象台以黄色和红色小点在地图上表示。

将鼠标移到小点上方,可查看气象台名称。

然后点击查看天气观测和预报。

如需切换地图:点击带黑十字的绿色按钮放大地图;点击带横线的绿色按钮缩小地图;或者点击绿色箭头查看邻近地区的地图。


METAR-TAF: